Terminal Aerodrome Forecast
Issued by NWS Los Angeles, CA

Home | Current Version | Previous Version | Text Only | Print | Product List | Glossary On
Versions: 1 2 3 4 5 6 7 8 9 10 11 12 13 14 15 16 17 18 19 20 21 22 23 24 25 26 27
000
FTUS46 KLOX 300500
TAFSMX
TAF
KSMX 300539Z 3006/3106 VRB03KT P6SM SCT150 BKN250
     FM300900 VRB03KT 2SM BR OVC003
     FM301530 VRB03KT 4SM BR BKN005
     FM301700 28006KT P6SM BKN150
     FM302000 29012KT P6SM BKN150
     FM310300 31007KT P6SM BKN007=

USA.gov is the U.S. government's official web portal to all federal, state and local government web resources and services.